Latest Weather Observations for Snowtown

IDS60801

Issued at 7:01 pm CDT Thursday 19 January 2017 (issued every 30 minutes, with the page automatically refreshed every 10 minutes)

About weather observations | Map of weather stations | Latest weather observations for SA | Other Formats
Station Details ID: 021133 Name: RAYVILLE PARK Lat: -33.77 Lon: 138.22 Height: 109.1 m
Data from the previous 72 hours. | See also: Recent months at Snowtown
Date/Time
CDT
Temp
°C
App
Temp
°C
Dew
Point
°C
Rel
Hum
%
Delta-T
°C
Wind Press
QNH
hPa
Press
MSL
hPa
Rain since
9am
mm
Dir  Spd
km/h
Gust
km/h
Spd
kts
Gust
kts
19/07:00pm 30.3 34.2 24.2 70 4.3 NE 11 15 6 8 997.3 996.8 0.2
19/06:30pm 33.9 36.5 22.0 49 8.2 NW 11 13 6 7 997.4 996.9 0.2
19/06:23pm 33.0 35.9 22.4 53 7.3 NNW 11 15 6 8 997.6 997.1 0.2
19/06:00pm 30.6 27.9 21.9 59 5.9 N 39 61 21 33 998.4 997.9 0.2
19/05:53pm 30.3 29.2 21.1 58 6.2 N 28 61 15 33 998.5 998.0 0.0
19/05:52pm 30.6 29.3 19.9 52 7.1 N 26 61 14 33 998.6 998.1 0.0
19/05:30pm 35.6 35.7 16.4 32 12.3 NNW 11 17 6 9 998.4 997.9 0.0
19/05:00pm 36.5 35.5 16.6 30 12.8 NW 17 26 9 14 998.8 998.3 0.0
19/04:30pm 38.4 35.7 15.5 26 14.6 NNW 24 35 13 19 999.3 998.8 0.0
19/04:00pm 38.3 35.5 15.4 25 14.6 NW 24 35 13 19 1000.2 999.7 0.0
19/03:30pm 37.6 36.0 16.0 28 13.9 NNW 19 32 10 17 1000.9 1000.4 0.0
19/03:00pm 36.8 34.9 15.3 28 13.6 NNW 19 32 10 17 1001.8 1001.3 0.0
19/02:30pm 37.0 34.4 16.0 28 13.4 NNW 24 32 13 17 1002.7 1002.2 0.0
19/02:00pm 36.6 34.7 15.7 29 13.3 NNW 20 35 11 19 1003.8 1003.3 0.0
19/01:30pm 35.9 33.4 15.1 29 13.1 NW 22 33 12 18 1004.6 1004.1 0.0
19/01:00pm 36.2 34.3 14.2 26 13.7 NW 17 26 9 14 1005.1 1004.6 0.0
19/12:30pm 34.7 31.8 12.4 26 13.4 N 19 32 10 17 1005.7 1005.2 0.0
19/12:00pm 33.3 30.6 11.8 27 12.8 N 17 24 9 13 1006.1 1005.6 0.0
19/11:30am 32.6 30.1 12.3 29 12.1 NNE 17 24 9 13 1006.5 1006.0 0.0
19/11:00am 32.4 28.9 12.1 29 12.0 N 22 30 12 16 1007.0 1006.5 0.0
19/10:30am 30.3 26.6 10.3 29 11.5 NNE 20 28 11 15 1007.6 1007.1 0.0
19/10:00am 28.6 24.9 9.3 30 10.8 N 19 24 10 13 1008.1 1007.6 0.0
19/09:30am 27.9 24.4 8.7 30 10.6 N 17 20 9 11 1008.5 1008.0 0.0
19/09:00am 26.9 22.7 8.4 31 10.1 NNE 20 26 11 14 1008.6 1008.1 0.0
19/08:30am 25.8 22.4 9.2 35 9.1 NE 17 20 9 11 1008.7 1008.2 0.0
19/08:00am 24.1 21.3 10.0 41 7.8 NNE 15 20 8 11 1008.6 1008.1 0.0
19/07:30am 21.6 21.3 11.6 53 5.6 SSW 4 9 2 5 1008.6 1008.1 0.0
19/07:00am 17.8 18.2 13.7 77 2.3 SSW 4 6 2 3 1008.6 1008.1 0.0
19/06:30am 16.5 17.4 13.0 80 2.0 CALM 0 0 0 0 1008.6 1008.1 0.0
19/06:00am 16.6 17.5 12.8 78 2.1 CALM 0 0 0 0 1008.8 1008.3 0.0
19/05:30am 15.6 16.4 12.7 83 1.6 CALM 0 0 0 0 1008.8 1008.3 0.0
19/05:00am 15.1 14.6 11.9 81 1.7 SSW 6 9 3 5 1008.9 1008.4 0.0
19/04:30am 15.0 15.1 11.6 80 1.8 SSW 2 6 1 3 1009.0 1008.5 0.0
19/04:00am 15.4 14.5 11.2 76 2.3 SW 7 9 4 5 1009.1 1008.6 0.0
19/03:30am 15.2 13.6 11.4 78 2.1 SW 11 11 6 6 1009.4 1008.9 0.0
19/03:00am 15.5 14.6 11.3 76 2.3 SW 7 11 4 6 1009.7 1009.2 0.0
19/02:30am 15.9 14.2 11.3 74 2.5 SW 11 13 6 7 1010.1 1009.6 0.0
19/02:00am 16.3 14.5 11.0 71 2.9 SW 11 13 6 7 1010.4 1009.9 0.0
19/01:30am 17.0 15.7 11.3 69 3.1 WSW 9 11 5 6 1010.5 1010.0 0.0
19/01:00am 16.8 15.6 11.5 71 2.9 WSW 9 11 5 6 1010.7 1010.2 0.0
19/12:30am 17.8 16.5 11.1 65 3.6 WSW 9 11 5 6 1011.0 1010.5 0.0
19/12:00am 17.8 16.5 11.1 65 3.6 SW 9 13 5 7 1011.5 1011.1 0.0
 
Date/Time
CDT
Temp
°C
App
Temp
°C
Dew
Point
°C
Rel
Hum
%
Delta-T
°C
Wind Press
QNH
hPa
Press
MSL
hPa
Rain since
9am
mm
Dir  Spd
km/h
Gust
km/h
Spd
kts
Gust
kts
18/11:30pm 17.7 16.3 10.8 64 3.7 WSW 9 11 5 6 1011.6 1011.2 0.0
18/11:00pm 19.7 18.4 10.1 54 5.2 SSE 7 9 4 5 1011.9 1011.5 0.0
18/10:30pm 19.4 17.8 11.7 61 4.3 SSW 11 13 6 7 1012.0 1011.6 0.0
18/10:00pm 20.6 19.3 13.6 64 4.0 SW 13 15 7 8 1011.7 1011.3 0.0
18/09:30pm 22.1 20.9 12.9 56 5.3 SSW 11 19 6 10 1011.5 1011.1 0.0
18/09:00pm 22.4 21.4 14.5 61 4.7 SW 13 20 7 11 1011.1 1010.6 0.0
18/08:30pm 22.8 21.0 15.6 64 4.3 SSW 19 28 10 15 1010.8 1010.3 0.0
18/08:00pm 24.3 22.5 16.0 60 5.1 SSW 20 30 11 16 1010.5 1010.0 0.0
18/07:30pm 25.6 22.6 15.9 55 5.9 SSW 26 33 14 18 1010.4 1009.9 0.0
18/07:00pm 26.5 23.9 15.8 51 6.6 SSW 24 37 13 20 1010.2 1009.7 0.0
18/06:30pm 27.0 23.6 15.7 50 6.9 SSW 28 43 15 23 1010.0 1009.5 0.0
18/06:00pm 29.2 24.4 14.6 41 8.9 S 33 48 18 26 1009.9 1009.4 0.0
18/05:30pm 29.7 24.9 14.7 40 9.2 SSW 33 52 18 28 1009.8 1009.3 0.0
18/05:29pm 29.7 24.9 14.7 40 9.2 SSW 33 52 18 28 1009.8 1009.3 0.0
18/05:00pm 29.5 24.0 13.7 38 9.5 S 35 48 19 26 1010.0 1009.5 0.0
18/04:30pm 28.9 23.4 14.7 42 8.7 SSW 37 50 20 27 1010.2 1009.7 0.0
18/04:00pm 28.8 23.5 14.2 40 8.8 SSW 35 54 19 29 1010.4 1009.9 0.0
18/03:54pm 28.9 24.0 15.4 44 8.3 SSW 35 54 19 29 1010.4 1009.9 0.0
18/03:30pm 28.8 23.9 15.3 43 8.3 SSW 35 48 19 26 1010.6 1010.1 0.0
18/03:00pm 31.1 25.9 12.9 32 10.9 S 32 41 17 22 1010.9 1010.4 0.0
18/02:30pm 30.4 25.3 13.7 36 10.1 S 33 44 18 24 1011.1 1010.6 0.0
18/02:00pm 30.4 26.6 15.7 41 9.1 S 30 41 16 22 1011.6 1011.2 0.0
18/01:30pm 29.2 25.6 15.3 42 8.6 S 28 43 15 23 1012.0 1011.6 0.0
18/01:00pm 28.3 24.2 14.9 44 8.2 S 30 39 16 21 1012.4 1012.0 0.0
18/12:30pm 27.9 24.9 15.9 48 7.4 SSE 26 37 14 20 1012.9 1012.4 0.0
18/12:00pm 26.9 23.9 15.9 51 6.8 SSE 26 35 14 19 1013.1 1012.6 0.0
18/11:30am 26.5 23.8 15.5 50 6.7 SSE 24 33 13 18 1013.3 1012.8 0.0
18/11:00am 25.7 22.6 15.7 54 6.1 SSE 26 33 14 18 1013.5 1013.0 0.0
18/10:30am 25.2 22.0 15.2 54 6.0 SSE 26 35 14 19 1013.9 1013.4 0.0
18/10:00am 24.1 20.6 14.5 55 5.7 SSE 26 35 14 19 1013.9 1013.4 0.0
18/09:30am 23.4 19.7 14.9 59 5.1 SSE 28 37 15 20 1014.3 1013.8 0.0
18/09:00am 22.3 18.1 14.7 62 4.5 SSE 30 39 16 21 1014.4 1013.9 0.0
18/08:30am 21.2 16.8 14.1 64 4.1 SSE 30 39 16 21 1014.4 1013.9 0.0
18/08:00am 20.3 17.1 14.2 68 3.6 SSE 24 32 13 17 1014.2 1013.7 0.0
18/07:30am 18.5 18.7 14.6 78 2.3 SSW 7 11 4 6 1014.2 1013.7 0.0
18/07:00am 16.0 15.1 13.8 87 1.2 SW 11 15 6 8 1013.2 1012.7 0.0
18/06:30am 14.8 13.7 13.0 89 1.0 SW 11 13 6 7 1012.4 1012.0 0.0
18/06:00am 14.7 13.1 12.7 88 1.1 SW 13 15 7 8 1011.8 1011.4 0.0
18/05:30am 15.1 14.3 13.0 87 1.2 SSW 9 13 5 7 1011.1 1010.6 0.0
18/05:00am 14.5 13.2 12.4 87 1.1 SW 11 13 6 7 1010.8 1010.3 0.0
18/04:30am 14.8 14.3 12.1 84 1.5 S 6 7 3 4 1010.4 1009.9 0.0
18/04:00am 15.7 14.9 12.8 83 1.6 S 9 13 5 7 1010.0 1009.5 0.0
18/03:30am 14.8 13.2 12.8 88 1.1 SW 13 15 7 8 1010.1 1009.6 0.0
18/03:00am 14.9 13.7 12.9 88 1.1 SW 11 13 6 7 1010.3 1009.8 0.0
18/02:30am 16.4 15.5 13.7 84 1.5 SSW 11 13 6 7 1010.2 1009.7 0.0
18/02:00am 17.3 16.0 14.9 86 1.4 S 15 20 8 11 1010.5 1010.0 0.0
18/01:30am 17.1 16.0 14.4 84 1.6 S 13 17 7 9 1010.2 1009.7 0.0
18/01:00am 18.9 16.8 15.2 79 2.2 SSW 20 30 11 16 1010.3 1009.8 0.0
18/12:30am 18.1 17.1 15.5 85 1.5 SW 15 19 8 10 1010.0 1009.5 0.0
18/12:00am 18.7 18.6 15.9 84 1.7 SW 11 15 6 8 1010.2 1009.7 0.0
 
Date/Time
CDT
Temp
°C
App
Temp
°C
Dew
Point
°C
Rel
Hum
%
Delta-T
°C
Wind Press
QNH
hPa
Press
MSL
hPa
Rain since
9am
mm
Dir  Spd
km/h
Gust
km/h
Spd
kts
Gust
kts
17/11:30pm 20.0 18.5 16.2 79 2.3 SSW 19 26 10 14 1010.4 1009.9 0.0
17/11:00pm 20.5 18.1 16.5 78 2.4 S 24 32 13 17 1010.6 1010.1 0.0
17/10:30pm 20.8 17.8 16.8 78 2.4 SSW 28 41 15 22 1010.6 1010.1 0.0
17/10:04pm 21.1 17.3 17.1 78 2.5 SSW 33 52 18 28 1010.2 1009.7 0.0
17/10:00pm 21.1 16.8 16.9 77 2.6 SSW 35 52 19 28 1010.2 1009.7 0.0
17/09:30pm 22.2 17.2 16.2 69 3.6 S 37 52 20 28 1009.9 1009.4 0.0
17/09:07pm 23.7 18.9 16.7 65 4.3 S 37 56 20 30 1009.6 1009.1 0.0
17/09:00pm 24.1 20.1 16.6 63 4.6 S 33 44 18 24 1009.4 1008.9 0.0
17/08:30pm 27.9 20.8 9.7 32 10.2 SSW 37 63 20 34 1007.9 1007.4 0.0
17/08:24pm 29.1 22.8 9.8 30 10.9 SSW 33 54 18 29 1007.6 1007.1 0.0
17/08:00pm 31.3 24.9 7.1 22 13.2 SSW 30 41 16 22 1006.7 1006.2 0.0
17/07:30pm 33.2 28.6 6.5 19 14.6 SW 20 43 11 23 1005.9 1005.4 0.0
17/07:00pm 38.3 33.9 2.7 11 18.8 W 15 19 8 10 1005.3 1004.8 0.0
17/06:30pm 39.2 33.7 0.6 9 19.9 WNW 19 26 10 14 1005.2 1004.7 0.0
17/06:00pm 39.4 33.3 -2.7 7 20.6 WNW 20 32 11 17 1005.3 1004.8 0.0
17/05:30pm 39.7 33.1 -0.7 8 20.5 WNW 24 33 13 18 1005.3 1004.8 0.0
17/05:00pm 39.9 34.3 1.1 9 20.2 WNW 20 28 11 15 1005.4 1004.9 0.0
17/04:30pm 39.7 33.4 -0.7 8 20.5 WNW 22 35 12 19 1005.8 1005.3 0.0
17/04:00pm 39.6 31.8 -0.8 8 20.4 WNW 30 41 16 22 1006.0 1005.5 0.0
17/03:30pm 39.6 33.6 0.9 9 20.1 WNW 22 35 12 19 1006.2 1005.7 0.0
17/03:00pm 39.0 32.8 1.9 10 19.5 WNW 24 35 13 19 1006.4 1005.9 0.0
17/02:30pm 38.8 32.3 0.3 9 19.7 NW 24 37 13 20 1006.8 1006.3 0.0
17/02:00pm 38.4 32.3 2.8 11 18.8 WNW 24 37 13 20 1007.2 1006.7 0.0
17/01:30pm 38.4 31.1 0.0 9 19.5 WNW 28 39 15 21 1007.5 1007.0 0.0
17/01:18pm 38.3 30.6 -0.1 9 19.4 NW 30 48 16 26 1007.5 1007.0 0.0
17/01:00pm 37.7 31.1 -0.6 9 19.1 NW 24 39 13 21 1007.7 1007.2 0.0
17/12:30pm 38.3 31.6 3.9 12 18.5 NW 28 37 15 20 1007.9 1007.4 0.0
17/12:00pm 37.8 31.2 2.3 11 18.6 NW 26 39 14 21 1008.1 1007.6 0.0
17/11:30am 37.3 31.9 4.3 13 17.8 NW 22 35 12 19 1008.2 1007.7 0.0
17/11:00am 36.6 29.5 1.4 11 18.0 NNW 28 37 15 20 1008.3 1007.8 0.0
17/10:30am 35.1 29.9 3.6 14 16.6 NNE 20 28 11 15 1008.4 1007.9 0.0
17/10:00am 33.2 28.0 7.2 20 14.3 NNE 24 30 13 16 1008.7 1008.2 0.0
17/09:30am 31.4 25.4 3.4 17 14.4 NNE 24 32 13 17 1008.7 1008.2 0.0
17/09:00am 29.2 24.2 6.6 24 12.1 NNE 22 28 12 15 1008.9 1008.4 0.0
17/08:30am 26.5 23.1 7.5 30 10.2 N 15 22 8 12 1009.0 1008.5 0.0
17/08:00am 22.4 20.0 10.2 46 6.7 N 13 17 7 9 1008.9 1008.4 0.0
17/07:30am 19.0 17.3 10.0 56 4.8 N 9 13 5 7 1008.9 1008.4 0.0
17/07:00am 16.9 14.3 9.3 61 4.0 NNW 13 15 7 8 1008.7 1008.2 0.0
17/06:30am 14.2 11.1 9.0 71 2.7 NNW 15 17 8 9 1008.5 1008.0 0.0
17/06:00am 15.5 13.0 8.3 62 3.7 NNW 11 15 6 8 1008.2 1007.7 0.0
17/05:30am 14.7 12.1 9.3 70 2.8 NNW 13 13 7 7 1008.2 1007.7 0.0
17/05:00am 12.9 11.0 9.2 78 1.9 NNW 9 11 5 6 1008.1 1007.6 0.0
17/04:30am 13.9 12.4 9.3 74 2.4 NNW 7 9 4 5 1008.1 1007.6 0.0
17/04:00am 15.0 12.5 8.3 64 3.4 NNW 11 13 6 7 1008.1 1007.6 0.0
17/03:30am 15.4 13.2 9.5 68 3.1 NNW 11 13 6 7 1008.1 1007.6 0.0
17/03:00am 16.0 13.3 9.0 63 3.6 NNW 13 15 7 8 1008.2 1007.7 0.0
17/02:30am 17.9 14.3 8.5 54 4.9 NNW 17 19 9 10 1008.5 1008.0 0.0
17/02:00am 16.0 13.6 9.9 67 3.2 NNW 13 15 7 8 1008.8 1008.3 0.0
17/01:30am 16.6 14.4 9.5 63 3.7 NNW 11 15 6 8 1008.8 1008.3 0.0
17/01:00am 17.6 14.7 9.8 60 4.1 NW 15 15 8 8 1009.0 1008.5 0.0
17/12:30am 16.6 15.5 10.7 68 3.2 SSE 7 9 4 5 1009.2 1008.7 0.0
17/12:00am 16.8 17.2 11.1 69 3.1 CALM 0 0 0 0 1009.5 1009.0 0.0
 
Date/Time
CDT
Temp
°C
App
Temp
°C
Dew
Point
°C
Rel
Hum
%
Delta-T
°C
Wind Press
QNH
hPa
Press
MSL
hPa
Rain since
9am
mm
Dir  Spd
km/h
Gust
km/h
Spd
kts
Gust
kts
16/11:30pm 18.1 17.1 11.0 63 3.9 SSE 7 9 4 5 1009.4 1008.9 0.0
16/11:00pm 17.7 18.0 10.8 64 3.7 CALM 0 0 0 0 1009.6 1009.1 0.0
16/10:30pm 19.5 18.7 9.7 53 5.2 WNW 4 13 2 7 1009.6 1009.1 0.0
16/10:00pm 18.1 16.6 10.7 62 4.0 W 9 11 5 6 1009.4 1008.9 0.0
16/09:30pm 18.2 16.5 11.3 64 3.8 W 11 13 6 7 1009.2 1008.7 0.0
16/09:00pm 19.7 18.3 10.9 57 4.8 W 9 11 5 6 1009.2 1008.7 0.0
16/08:30pm 23.5 22.6 11.2 46 6.9 W 7 9 4 5 1009.1 1008.6 0.0
16/08:20pm 27.9 27.2 8.7 30 10.6 W 2 9 1 5 1009.0 1008.5 0.0
16/08:00pm 33.5 32.4 5.1 17 15.2 CALM 0 0 0 0 1009.0 1008.5 0.0
16/07:30pm 35.1 33.1 0.2 11 17.4 CALM 0 0 0 0 1008.8 1008.3 0.0

Other Formats:

Comma delimited format used in spreadsheet applications
http://www.bom.gov.au/fwo/IDS60801/IDS60801.95670.axf

JavaScript Object Notation format (JSON) in row-major order
http://www.bom.gov.au/fwo/IDS60801/IDS60801.95670.json